sensor_id;sensor_type;location;lat;lon;timestamp;P1;durP1;ratioP1;P2;durP2;ratioP2
59145;SDS011;44928;53.074;6.646;2022-10-31T00:00:06;19.40;;;10.65;;
59145;SDS011;44928;53.074;6.646;2022-10-31T00:02:33;18.30;;;10.75;;
59145;SDS011;44928;53.074;6.646;2022-10-31T00:04:59;16.83;;;10.90;;
59145;SDS011;44928;53.074;6.646;2022-10-31T00:07:25;21.05;;;9.95;;
59145;SDS011;44928;53.074;6.646;2022-10-31T00:09:51;22.98;;;11.32;;
59145;SDS011;44928;53.074;6.646;2022-10-31T00:12:16;19.17;;;11.25;;
59145;SDS011;44928;53.074;6.646;2022-10-31T00:14:42;19.08;;;10.73;;
59145;SDS011;44928;53.074;6.646;2022-10-31T00:17:08;19.00;;;10.75;;
59145;SDS011;44928;53.074;6.646;2022-10-31T00:19:34;18.95;;;10.50;;
59145;SDS011;44928;53.074;6.646;2022-10-31T00:21:59;18.48;;;10.70;;
59145;SDS011;44928;53.074;6.646;2022-10-31T00:24:25;20.90;;;10.95;;
59145;SDS011;44928;53.074;6.646;2022-10-31T00:26:51;16.90;;;10.18;;
59145;SDS011;44928;53.074;6.646;2022-10-31T00:29:16;19.15;;;11.30;;
59145;SDS011;44928;53.074;6.646;2022-10-31T00:31:42;19.88;;;10.85;;
59145;SDS011;44928;53.074;6.646;2022-10-31T00:34:08;17.80;;;11.27;;
59145;SDS011;44928;53.074;6.646;2022-10-31T00:36:34;20.98;;;11.75;;
59145;SDS011;44928;53.074;6.646;2022-10-31T00:38:59;19.85;;;11.93;;
59145;SDS011;44928;53.074;6.646;2022-10-31T00:41:26;19.85;;;11.63;;
59145;SDS011;44928;53.074;6.646;2022-10-31T00:43:52;19.55;;;11.93;;
59145;SDS011;44928;53.074;6.646;2022-10-31T00:46:17;18.02;;;11.45;;
59145;SDS011;44928;53.074;6.646;2022-10-31T00:48:43;21.80;;;11.60;;
59145;SDS011;44928;53.074;6.646;2022-10-31T00:51:09;18.38;;;11.40;;
59145;SDS011;44928;53.074;6.646;2022-10-31T00:53:35;21.73;;;11.55;;
59145;SDS011;44928;53.074;6.646;2022-10-31T00:56:01;24.67;;;12.15;;
59145;SDS011;44928;53.074;6.646;2022-10-31T00:58:27;23.13;;;12.00;;
59145;SDS011;44928;53.074;6.646;2022-10-31T01:00:53;19.80;;;11.63;;
59145;SDS011;44928;53.074;6.646;2022-10-31T01:03:23;20.98;;;11.85;;
59145;SDS011;44928;53.074;6.646;2022-10-31T01:05:57;19.42;;;11.18;;
59145;SDS011;44928;53.074;6.646;2022-10-31T01:08:29;20.35;;;11.40;;
59145;SDS011;44928;53.074;6.646;2022-10-31T01:10:58;22.00;;;11.65;;
59145;SDS011;44928;53.074;6.646;2022-10-31T01:13:29;21.23;;;12.00;;
59145;SDS011;44928;53.074;6.646;2022-10-31T01:15:55;18.50;;;11.07;;
59145;SDS011;44928;53.074;6.646;2022-10-31T01:18:23;17.58;;;10.75;;
59145;SDS011;44928;53.074;6.646;2022-10-31T01:21:00;20.80;;;11.20;;
59145;SDS011;44928;53.074;6.646;2022-10-31T01:23:31;18.67;;;10.52;;
59145;SDS011;44928;53.074;6.646;2022-10-31T01:26:02;19.33;;;10.52;;
59145;SDS011;44928;53.074;6.646;2022-10-31T01:28:29;18.48;;;11.60;;
59145;SDS011;44928;53.074;6.646;2022-10-31T01:30:55;20.35;;;10.43;;
59145;SDS011;44928;53.074;6.646;2022-10-31T01:33:24;18.90;;;10.15;;
59145;SDS011;44928;53.074;6.646;2022-10-31T01:35:50;17.02;;;9.68;;
59145;SDS011;44928;53.074;6.646;2022-10-31T01:38:16;16.30;;;9.52;;
59145;SDS011;44928;53.074;6.646;2022-10-31T01:40:41;16.20;;;9.77;;
59145;SDS011;44928;53.074;6.646;2022-10-31T01:43:11;16.10;;;9.30;;
59145;SDS011;44928;53.074;6.646;2022-10-31T01:45:40;15.65;;;9.40;;
59145;SDS011;44928;53.074;6.646;2022-10-31T01:48:19;21.92;;;10.00;;
59145;SDS011;44928;53.074;6.646;2022-10-31T01:50:49;17.75;;;10.05;;
59145;SDS011;44928;53.074;6.646;2022-10-31T01:53:16;16.65;;;9.95;;
59145;SDS011;44928;53.074;6.646;2022-10-31T01:55:44;16.50;;;10.10;;
59145;SDS011;44928;53.074;6.646;2022-10-31T01:58:15;17.00;;;10.15;;
59145;SDS011;44928;53.074;6.646;2022-10-31T02:00:46;17.65;;;9.95;;
59145;SDS011;44928;53.074;6.646;2022-10-31T02:03:16;18.40;;;9.80;;
59145;SDS011;44928;53.074;6.646;2022-10-31T02:05:43;16.13;;;9.27;;
59145;SDS011;44928;53.074;6.646;2022-10-31T02:08:17;17.25;;;10.38;;
59145;SDS011;44928;53.074;6.646;2022-10-31T02:10:46;15.88;;;9.57;;
59145;SDS011;44928;53.074;6.646;2022-10-31T02:13:12;17.33;;;9.80;;
59145;SDS011;44928;53.074;6.646;2022-10-31T02:15:39;17.67;;;10.07;;
59145;SDS011;44928;53.074;6.646;2022-10-31T02:18:06;16.88;;;9.68;;
59145;SDS011;44928;53.074;6.646;2022-10-31T02:33:51;19.10;;;10.05;;
59145;SDS011;44928;53.074;6.646;2022-10-31T02:36:43;21.30;;;10.68;;
59145;SDS011;44928;53.074;6.646;2022-10-31T02:39:43;18.48;;;10.15;;
59145;SDS011;44928;53.074;6.646;2022-10-31T02:42:33;16.50;;;10.15;;
59145;SDS011;44928;53.074;6.646;2022-10-31T02:45:50;15.30;;;9.63;;
59145;SDS011;44928;53.074;6.646;2022-10-31T02:48:02;16.65;;;10.25;;
59145;SDS011;44928;53.074;6.646;2022-10-31T02:50:34;17.63;;;10.25;;
59145;SDS011;44928;53.074;6.646;2022-10-31T02:58:00;19.05;;;10.63;;
59145;SDS011;44928;53.074;6.646;2022-10-31T03:00:28;17.27;;;9.60;;
59145;SDS011;44928;53.074;6.646;2022-10-31T03:11:01;16.52;;;10.50;;
59145;SDS011;44928;53.074;6.646;2022-10-31T03:13:41;17.45;;;9.95;;
59145;SDS011;44928;53.074;6.646;2022-10-31T03:16:17;20.75;;;10.60;;
59145;SDS011;44928;53.074;6.646;2022-10-31T03:19:07;14.75;;;9.27;;
59145;SDS011;44928;53.074;6.646;2022-10-31T03:21:38;15.70;;;9.48;;
59145;SDS011;44928;53.074;6.646;2022-10-31T03:24:15;13.32;;;9.00;;
59145;SDS011;44928;53.074;6.646;2022-10-31T03:26:42;14.95;;;9.38;;
59145;SDS011;44928;53.074;6.646;2022-10-31T03:29:13;16.25;;;9.73;;
59145;SDS011;44928;53.074;6.646;2022-10-31T03:34:26;18.58;;;10.80;;
59145;SDS011;44928;53.074;6.646;2022-10-31T03:36:55;21.55;;;11.13;;
59145;SDS011;44928;53.074;6.646;2022-10-31T03:39:24;17.58;;;10.90;;
59145;SDS011;44928;53.074;6.646;2022-10-31T03:41:53;18.42;;;10.85;;
59145;SDS011;44928;53.074;6.646;2022-10-31T03:44:29;17.73;;;10.88;;
59145;SDS011;44928;53.074;6.646;2022-10-31T03:46:57;15.93;;;10.13;;
59145;SDS011;44928;53.074;6.646;2022-10-31T03:49:23;15.60;;;10.13;;
59145;SDS011;44928;53.074;6.646;2022-10-31T03:51:54;16.35;;;10.23;;
59145;SDS011;44928;53.074;6.646;2022-10-31T03:57:15;15.98;;;9.10;;
59145;SDS011;44928;53.074;6.646;2022-10-31T04:00:05;17.63;;;10.25;;
59145;SDS011;44928;53.074;6.646;2022-10-31T04:02:37;17.90;;;10.18;;
59145;SDS011;44928;53.074;6.646;2022-10-31T04:05:07;16.67;;;9.57;;
59145;SDS011;44928;53.074;6.646;2022-10-31T04:07:40;16.95;;;9.80;;
59145;SDS011;44928;53.074;6.646;2022-10-31T04:10:09;17.02;;;10.65;;
59145;SDS011;44928;53.074;6.646;2022-10-31T04:12:38;16.15;;;9.63;;
59145;SDS011;44928;53.074;6.646;2022-10-31T04:15:06;17.77;;;9.95;;
59145;SDS011;44928;53.074;6.646;2022-10-31T04:17:35;15.85;;;9.55;;
59145;SDS011;44928;53.074;6.646;2022-10-31T04:20:03;15.50;;;9.52;;
59145;SDS011;44928;53.074;6.646;2022-10-31T04:22:30;16.30;;;9.70;;
59145;SDS011;44928;53.074;6.646;2022-10-31T04:24:55;16.05;;;9.20;;
59145;SDS011;44928;53.074;6.646;2022-10-31T04:27:21;16.83;;;9.20;;
59145;SDS011;44928;53.074;6.646;2022-10-31T04:29:47;14.05;;;8.85;;
59145;SDS011;44928;53.074;6.646;2022-10-31T04:32:13;15.52;;;9.05;;
59145;SDS011;44928;53.074;6.646;2022-10-31T04:34:39;14.43;;;9.65;;
59145;SDS011;44928;53.074;6.646;2022-10-31T04:37:04;17.45;;;9.32;;
59145;SDS011;44928;53.074;6.646;2022-10-31T04:39:30;15.50;;;10.05;;
59145;SDS011;44928;53.074;6.646;2022-10-31T04:41:56;15.98;;;10.80;;
59145;SDS011;44928;53.074;6.646;2022-10-31T04:44:22;18.35;;;10.13;;
59145;SDS011;44928;53.074;6.646;2022-10-31T04:46:47;15.55;;;10.13;;
59145;SDS011;44928;53.074;6.646;2022-10-31T04:49:13;17.75;;;9.48;;
59145;SDS011;44928;53.074;6.646;2022-10-31T04:51:39;14.77;;;9.82;;
59145;SDS011;44928;53.074;6.646;2022-10-31T04:54:05;16.65;;;10.15;;
59145;SDS011;44928;53.074;6.646;2022-10-31T04:56:30;20.75;;;11.48;;
59145;SDS011;44928;53.074;6.646;2022-10-31T04:58:56;14.05;;;9.57;;
59145;SDS011;44928;53.074;6.646;2022-10-31T05:01:22;16.13;;;9.73;;
59145;SDS011;44928;53.074;6.646;2022-10-31T05:03:48;15.02;;;10.02;;
59145;SDS011;44928;53.074;6.646;2022-10-31T05:06:13;16.25;;;10.32;;
59145;SDS011;44928;53.074;6.646;2022-10-31T05:08:42;15.57;;;9.95;;
59145;SDS011;44928;53.074;6.646;2022-10-31T05:11:08;16.98;;;10.02;;
59145;SDS011;44928;53.074;6.646;2022-10-31T05:13:34;13.30;;;9.23;;
59145;SDS011;44928;53.074;6.646;2022-10-31T05:15:59;14.23;;;9.02;;
59145;SDS011;44928;53.074;6.646;2022-10-31T05:18:25;16.38;;;9.23;;
59145;SDS011;44928;53.074;6.646;2022-10-31T05:20:51;14.68;;;10.27;;
59145;SDS011;44928;53.074;6.646;2022-10-31T05:23:17;15.90;;;10.50;;
59145;SDS011;44928;53.074;6.646;2022-10-31T05:25:42;14.75;;;9.50;;
59145;SDS011;44928;53.074;6.646;2022-10-31T05:28:08;16.23;;;10.07;;
59145;SDS011;44928;53.074;6.646;2022-10-31T05:30:34;15.68;;;10.70;;
59145;SDS011;44928;53.074;6.646;2022-10-31T05:33:00;14.07;;;9.40;;
59145;SDS011;44928;53.074;6.646;2022-10-31T05:35:30;18.27;;;9.77;;
59145;SDS011;44928;53.074;6.646;2022-10-31T05:37:57;15.35;;;10.30;;
59145;SDS011;44928;53.074;6.646;2022-10-31T05:40:24;14.02;;;9.45;;
59145;SDS011;44928;53.074;6.646;2022-10-31T05:42:51;16.98;;;10.27;;
59145;SDS011;44928;53.074;6.646;2022-10-31T05:45:18;16.25;;;10.10;;
59145;SDS011;44928;53.074;6.646;2022-10-31T05:50:17;15.15;;;10.00;;
59145;SDS011;44928;53.074;6.646;2022-10-31T05:52:43;16.92;;;10.43;;
59145;SDS011;44928;53.074;6.646;2022-10-31T05:55:08;16.58;;;10.55;;
59145;SDS011;44928;53.074;6.646;2022-10-31T05:57:34;16.30;;;10.77;;
59145;SDS011;44928;53.074;6.646;2022-10-31T06:00:00;13.52;;;9.73;;
59145;SDS011;44928;53.074;6.646;2022-10-31T06:02:26;17.00;;;10.85;;
59145;SDS011;44928;53.074;6.646;2022-10-31T06:04:51;12.55;;;8.95;;
59145;SDS011;44928;53.074;6.646;2022-10-31T06:07:17;14.50;;;9.70;;
59145;SDS011;44928;53.074;6.646;2022-10-31T06:09:43;15.07;;;9.95;;
59145;SDS011;44928;53.074;6.646;2022-10-31T06:12:09;14.45;;;8.98;;
59145;SDS011;44928;53.074;6.646;2022-10-31T06:14:35;16.42;;;9.65;;
59145;SDS011;44928;53.074;6.646;2022-10-31T06:17:01;14.05;;;9.10;;
59145;SDS011;44928;53.074;6.646;2022-10-31T06:19:26;16.52;;;10.20;;
59145;SDS011;44928;53.074;6.646;2022-10-31T06:21:52;13.88;;;9.05;;
59145;SDS011;44928;53.074;6.646;2022-10-31T06:24:18;15.25;;;9.23;;
59145;SDS011;44928;53.074;6.646;2022-10-31T06:26:43;15.40;;;9.63;;
59145;SDS011;44928;53.074;6.646;2022-10-31T06:29:09;14.13;;;9.25;;
59145;SDS011;44928;53.074;6.646;2022-10-31T06:31:35;16.30;;;10.10;;
59145;SDS011;44928;53.074;6.646;2022-10-31T06:34:01;16.65;;;9.85;;
59145;SDS011;44928;53.074;6.646;2022-10-31T06:36:26;17.98;;;10.48;;
59145;SDS011;44928;53.074;6.646;2022-10-31T06:38:52;15.70;;;9.90;;
59145;SDS011;44928;53.074;6.646;2022-10-31T06:41:18;14.65;;;9.43;;
59145;SDS011;44928;53.074;6.646;2022-10-31T06:43:46;16.70;;;10.25;;
59145;SDS011;44928;53.074;6.646;2022-10-31T06:46:12;14.93;;;9.50;;
59145;SDS011;44928;53.074;6.646;2022-10-31T06:48:39;14.68;;;9.15;;
59145;SDS011;44928;53.074;6.646;2022-10-31T06:51:06;17.23;;;10.57;;
59145;SDS011;44928;53.074;6.646;2022-10-31T06:53:32;16.45;;;9.15;;
59145;SDS011;44928;53.074;6.646;2022-10-31T06:55:58;14.43;;;8.77;;
59145;SDS011;44928;53.074;6.646;2022-10-31T06:58:23;13.40;;;9.00;;
59145;SDS011;44928;53.074;6.646;2022-10-31T07:00:49;15.30;;;8.77;;
59145;SDS011;44928;53.074;6.646;2022-10-31T07:03:15;14.93;;;9.18;;
59145;SDS011;44928;53.074;6.646;2022-10-31T07:05:41;12.70;;;8.00;;
59145;SDS011;44928;53.074;6.646;2022-10-31T07:08:09;15.52;;;8.70;;
59145;SDS011;44928;53.074;6.646;2022-10-31T07:10:36;13.88;;;8.88;;
59145;SDS011;44928;53.074;6.646;2022-10-31T07:13:04;15.32;;;8.75;;
59145;SDS011;44928;53.074;6.646;2022-10-31T07:15:34;16.90;;;9.27;;
59145;SDS011;44928;53.074;6.646;2022-10-31T07:18:05;15.43;;;9.18;;
59145;SDS011;44928;53.074;6.646;2022-10-31T07:20:33;14.60;;;9.20;;
59145;SDS011;44928;53.074;6.646;2022-10-31T07:22:59;15.50;;;9.07;;
59145;SDS011;44928;53.074;6.646;2022-10-31T07:25:25;14.20;;;8.77;;
59145;SDS011;44928;53.074;6.646;2022-10-31T07:27:52;14.70;;;8.77;;
59145;SDS011;44928;53.074;6.646;2022-10-31T07:30:18;13.65;;;9.23;;
59145;SDS011;44928;53.074;6.646;2022-10-31T07:32:44;14.00;;;9.48;;
59145;SDS011;44928;53.074;6.646;2022-10-31T07:35:15;16.33;;;10.85;;
59145;SDS011;44928;53.074;6.646;2022-10-31T07:37:45;14.98;;;9.63;;
59145;SDS011;44928;53.074;6.646;2022-10-31T07:40:11;18.60;;;10.40;;
59145;SDS011;44928;53.074;6.646;2022-10-31T07:42:38;15.85;;;10.63;;
59145;SDS011;44928;53.074;6.646;2022-10-31T07:45:06;16.27;;;11.32;;
59145;SDS011;44928;53.074;6.646;2022-10-31T07:50:10;16.92;;;10.40;;
59145;SDS011;44928;53.074;6.646;2022-10-31T07:52:37;16.75;;;11.60;;
59145;SDS011;44928;53.074;6.646;2022-10-31T07:55:03;16.17;;;10.52;;
59145;SDS011;44928;53.074;6.646;2022-10-31T07:57:30;16.35;;;11.50;;
59145;SDS011;44928;53.074;6.646;2022-10-31T07:59:56;16.58;;;10.43;;
59145;SDS011;44928;53.074;6.646;2022-10-31T08:02:23;16.40;;;11.70;;
59145;SDS011;44928;53.074;6.646;2022-10-31T08:04:49;15.57;;;11.15;;
59145;SDS011;44928;53.074;6.646;2022-10-31T08:07:14;17.42;;;12.07;;
59145;SDS011;44928;53.074;6.646;2022-10-31T08:09:40;20.65;;;12.32;;
59145;SDS011;44928;53.074;6.646;2022-10-31T08:12:06;18.23;;;12.45;;
59145;SDS011;44928;53.074;6.646;2022-10-31T08:14:32;20.38;;;12.80;;
59145;SDS011;44928;53.074;6.646;2022-10-31T08:16:58;18.73;;;13.25;;
59145;SDS011;44928;53.074;6.646;2022-10-31T08:19:23;17.83;;;12.38;;
59145;SDS011;44928;53.074;6.646;2022-10-31T08:21:53;19.60;;;13.10;;
59145;SDS011;44928;53.074;6.646;2022-10-31T08:24:21;19.58;;;13.68;;
59145;SDS011;44928;53.074;6.646;2022-10-31T08:26:47;17.90;;;13.00;;
59145;SDS011;44928;53.074;6.646;2022-10-31T08:29:13;20.92;;;13.82;;
59145;SDS011;44928;53.074;6.646;2022-10-31T08:31:39;18.67;;;12.52;;
59145;SDS011;44928;53.074;6.646;2022-10-31T08:34:06;19.25;;;13.45;;
59145;SDS011;44928;53.074;6.646;2022-10-31T08:36:32;18.88;;;13.07;;
59145;SDS011;44928;53.074;6.646;2022-10-31T08:38:58;20.73;;;13.70;;
59145;SDS011;44928;53.074;6.646;2022-10-31T08:41:24;21.98;;;13.90;;
59145;SDS011;44928;53.074;6.646;2022-10-31T08:43:50;19.00;;;13.32;;
59145;SDS011;44928;53.074;6.646;2022-10-31T08:46:15;17.88;;;13.40;;
59145;SDS011;44928;53.074;6.646;2022-10-31T08:48:41;22.60;;;14.32;;
59145;SDS011;44928;53.074;6.646;2022-10-31T08:51:08;18.80;;;13.32;;
59145;SDS011;44928;53.074;6.646;2022-10-31T08:53:34;21.90;;;13.60;;
59145;SDS011;44928;53.074;6.646;2022-10-31T08:56:00;21.17;;;14.05;;
59145;SDS011;44928;53.074;6.646;2022-10-31T08:58:26;21.13;;;14.25;;
59145;SDS011;44928;53.074;6.646;2022-10-31T09:00:52;21.25;;;14.80;;
59145;SDS011;44928;53.074;6.646;2022-10-31T09:05:49;19.13;;;13.60;;
59145;SDS011;44928;53.074;6.646;2022-10-31T09:08:16;20.20;;;14.23;;
59145;SDS011;44928;53.074;6.646;2022-10-31T09:10:42;19.40;;;13.57;;
59145;SDS011;44928;53.074;6.646;2022-10-31T09:13:18;20.70;;;12.73;;
59145;SDS011;44928;53.074;6.646;2022-10-31T09:15:46;18.30;;;12.55;;
59145;SDS011;44928;53.074;6.646;2022-10-31T09:18:15;17.52;;;12.52;;
59145;SDS011;44928;53.074;6.646;2022-10-31T09:20:43;19.33;;;12.82;;
59145;SDS011;44928;53.074;6.646;2022-10-31T09:23:10;20.25;;;13.05;;
59145;SDS011;44928;53.074;6.646;2022-10-31T09:25:41;18.67;;;12.70;;
59145;SDS011;44928;53.074;6.646;2022-10-31T09:28:13;19.00;;;13.95;;
59145;SDS011;44928;53.074;6.646;2022-10-31T09:30:40;21.45;;;14.48;;
59145;SDS011;44928;53.074;6.646;2022-10-31T09:33:07;19.42;;;14.77;;
59145;SDS011;44928;53.074;6.646;2022-10-31T09:35:36;21.65;;;14.65;;
59145;SDS011;44928;53.074;6.646;2022-10-31T09:38:03;20.08;;;14.30;;
59145;SDS011;44928;53.074;6.646;2022-10-31T09:48:11;19.95;;;14.52;;
59145;SDS011;44928;53.074;6.646;2022-10-31T09:53:36;21.48;;;14.82;;
59145;SDS011;44928;53.074;6.646;2022-10-31T09:56:21;21.17;;;14.00;;
59145;SDS011;44928;53.074;6.646;2022-10-31T09:58:50;21.08;;;14.75;;
59145;SDS011;44928;53.074;6.646;2022-10-31T10:03:57;19.77;;;13.73;;
59145;SDS011;44928;53.074;6.646;2022-10-31T10:06:36;21.08;;;13.88;;
59145;SDS011;44928;53.074;6.646;2022-10-31T10:09:10;19.80;;;14.00;;
59145;SDS011;44928;53.074;6.646;2022-10-31T10:14:53;21.50;;;13.52;;
59145;SDS011;44928;53.074;6.646;2022-10-31T10:25:44;20.00;;;13.48;;
59145;SDS011;44928;53.074;6.646;2022-10-31T10:28:17;21.42;;;14.07;;
59145;SDS011;44928;53.074;6.646;2022-10-31T10:30:53;20.63;;;13.38;;
59145;SDS011;44928;53.074;6.646;2022-10-31T10:33:26;20.52;;;14.02;;
59145;SDS011;44928;53.074;6.646;2022-10-31T10:35:59;18.80;;;13.35;;
59145;SDS011;44928;53.074;6.646;2022-10-31T10:41:16;18.70;;;12.07;;
59145;SDS011;44928;53.074;6.646;2022-10-31T10:43:44;20.02;;;11.95;;
59145;SDS011;44928;53.074;6.646;2022-10-31T10:52:20;18.73;;;10.88;;
59145;SDS011;44928;53.074;6.646;2022-10-31T10:57:52;18.35;;;11.38;;
59145;SDS011;44928;53.074;6.646;2022-10-31T11:00:24;15.52;;;10.00;;
59145;SDS011;44928;53.074;6.646;2022-10-31T11:02:52;15.60;;;10.48;;
59145;SDS011;44928;53.074;6.646;2022-10-31T11:05:26;16.15;;;9.73;;
59145;SDS011;44928;53.074;6.646;2022-10-31T11:08:22;17.02;;;9.10;;
59145;SDS011;44928;53.074;6.646;2022-10-31T11:10:59;17.73;;;8.98;;
59145;SDS011;44928;53.074;6.646;2022-10-31T11:13:27;16.27;;;9.35;;
59145;SDS011;44928;53.074;6.646;2022-10-31T11:19:07;13.30;;;7.38;;
59145;SDS011;44928;53.074;6.646;2022-10-31T11:21:41;14.15;;;8.00;;
59145;SDS011;44928;53.074;6.646;2022-10-31T11:26:36;14.13;;;8.18;;
59145;SDS011;44928;53.074;6.646;2022-10-31T11:29:04;13.40;;;6.55;;
59145;SDS011;44928;53.074;6.646;2022-10-31T11:31:35;13.23;;;6.63;;
59145;SDS011;44928;53.074;6.646;2022-10-31T11:34:02;14.32;;;6.78;;
59145;SDS011;44928;53.074;6.646;2022-10-31T11:36:32;11.00;;;6.32;;
59145;SDS011;44928;53.074;6.646;2022-10-31T11:39:03;12.50;;;6.35;;
59145;SDS011;44928;53.074;6.646;2022-10-31T11:41:31;11.50;;;5.88;;
59145;SDS011;44928;53.074;6.646;2022-10-31T11:44:01;12.50;;;5.95;;
59145;SDS011;44928;53.074;6.646;2022-10-31T11:49:03;15.18;;;6.45;;
59145;SDS011;44928;53.074;6.646;2022-10-31T11:51:32;13.68;;;5.95;;
59145;SDS011;44928;53.074;6.646;2022-10-31T11:54:01;13.65;;;5.43;;
59145;SDS011;44928;53.074;6.646;2022-10-31T11:56:38;9.70;;;4.90;;
59145;SDS011;44928;53.074;6.646;2022-10-31T11:59:06;17.10;;;5.53;;
59145;SDS011;44928;53.074;6.646;2022-10-31T12:01:46;14.05;;;4.13;;
59145;SDS011;44928;53.074;6.646;2022-10-31T12:04:16;10.07;;;4.00;;
59145;SDS011;44928;53.074;6.646;2022-10-31T12:06:43;10.38;;;3.67;;
59145;SDS011;44928;53.074;6.646;2022-10-31T12:09:24;10.27;;;3.40;;
59145;SDS011;44928;53.074;6.646;2022-10-31T12:15:03;10.10;;;2.88;;
59145;SDS011;44928;53.074;6.646;2022-10-31T12:17:53;9.70;;;3.00;;
59145;SDS011;44928;53.074;6.646;2022-10-31T12:23:22;9.50;;;2.42;;
59145;SDS011;44928;53.074;6.646;2022-10-31T12:40:38;10.48;;;3.03;;
59145;SDS011;44928;53.074;6.646;2022-10-31T12:59:22;9.90;;;3.58;;
59145;SDS011;44928;53.074;6.646;2022-10-31T13:02:00;13.07;;;4.68;;
59145;SDS011;44928;53.074;6.646;2022-10-31T13:07:52;13.02;;;4.97;;
59145;SDS011;44928;53.074;6.646;2022-10-31T13:12:30;13.55;;;5.05;;
59145;SDS011;44928;53.074;6.646;2022-10-31T13:15:32;11.85;;;4.75;;
59145;SDS011;44928;53.074;6.646;2022-10-31T13:18:03;12.43;;;4.78;;
59145;SDS011;44928;53.074;6.646;2022-10-31T13:20:38;11.82;;;4.40;;
59145;SDS011;44928;53.074;6.646;2022-10-31T13:25:59;10.77;;;4.50;;
59145;SDS011;44928;53.074;6.646;2022-10-31T13:28:40;16.20;;;4.88;;
59145;SDS011;44928;53.074;6.646;2022-10-31T13:31:12;11.52;;;5.28;;
59145;SDS011;44928;53.074;6.646;2022-10-31T13:41:46;16.83;;;5.28;;
59145;SDS011;44928;53.074;6.646;2022-10-31T13:44:21;13.52;;;5.15;;
59145;SDS011;44928;53.074;6.646;2022-10-31T13:46:49;12.02;;;5.80;;
59145;SDS011;44928;53.074;6.646;2022-10-31T13:49:24;14.48;;;5.30;;
59145;SDS011;44928;53.074;6.646;2022-10-31T13:51:53;12.75;;;4.60;;
59145;SDS011;44928;53.074;6.646;2022-10-31T13:54:32;12.88;;;4.65;;
59145;SDS011;44928;53.074;6.646;2022-10-31T13:56:59;11.75;;;4.20;;
59145;SDS011;44928;53.074;6.646;2022-10-31T13:59:29;11.13;;;3.72;;
59145;SDS011;44928;53.074;6.646;2022-10-31T14:01:58;11.45;;;4.28;;
59145;SDS011;44928;53.074;6.646;2022-10-31T14:04:28;12.65;;;4.88;;
59145;SDS011;44928;53.074;6.646;2022-10-31T14:07:10;13.98;;;4.70;;
59145;SDS011;44928;53.074;6.646;2022-10-31T14:12:21;11.90;;;5.68;;
59145;SDS011;44928;53.074;6.646;2022-10-31T14:15:00;12.98;;;5.30;;
59145;SDS011;44928;53.074;6.646;2022-10-31T14:17:52;13.40;;;4.88;;
59145;SDS011;44928;53.074;6.646;2022-10-31T14:20:32;12.93;;;5.43;;
59145;SDS011;44928;53.074;6.646;2022-10-31T14:25:50;14.13;;;6.65;;
59145;SDS011;44928;53.074;6.646;2022-10-31T14:28:31;12.38;;;6.78;;
59145;SDS011;44928;53.074;6.646;2022-10-31T14:30:59;13.30;;;6.88;;
59145;SDS011;44928;53.074;6.646;2022-10-31T14:33:29;13.45;;;6.43;;
59145;SDS011;44928;53.074;6.646;2022-10-31T14:36:12;14.95;;;8.05;;
59145;SDS011;44928;53.074;6.646;2022-10-31T14:41:53;14.32;;;7.00;;
59145;SDS011;44928;53.074;6.646;2022-10-31T14:47:20;14.98;;;7.68;;
59145;SDS011;44928;53.074;6.646;2022-10-31T14:52:28;15.57;;;7.57;;
59145;SDS011;44928;53.074;6.646;2022-10-31T14:54:54;12.73;;;6.80;;
59145;SDS011;44928;53.074;6.646;2022-10-31T14:57:25;13.40;;;6.82;;
59145;SDS011;44928;53.074;6.646;2022-10-31T15:02:33;13.85;;;6.82;;
59145;SDS011;44928;53.074;6.646;2022-10-31T15:05:09;14.68;;;6.63;;
59145;SDS011;44928;53.074;6.646;2022-10-31T15:07:36;15.18;;;6.65;;
59145;SDS011;44928;53.074;6.646;2022-10-31T15:10:23;14.32;;;6.47;;
59145;SDS011;44928;53.074;6.646;2022-10-31T15:12:51;14.25;;;6.20;;
59145;SDS011;44928;53.074;6.646;2022-10-31T15:15:21;13.48;;;5.85;;
59145;SDS011;44928;53.074;6.646;2022-10-31T15:17:56;13.90;;;5.53;;
59145;SDS011;44928;53.074;6.646;2022-10-31T15:20:25;15.90;;;6.32;;
59145;SDS011;44928;53.074;6.646;2022-10-31T15:23:15;14.40;;;5.75;;
59145;SDS011;44928;53.074;6.646;2022-10-31T15:25:46;15.95;;;5.57;;
59145;SDS011;44928;53.074;6.646;2022-10-31T15:28:13;12.90;;;6.22;;
59145;SDS011;44928;53.074;6.646;2022-10-31T15:30:48;14.68;;;7.95;;
59145;SDS011;44928;53.074;6.646;2022-10-31T15:33:20;16.73;;;5.65;;
59145;SDS011;44928;53.074;6.646;2022-10-31T15:35:57;12.68;;;4.93;;
59145;SDS011;44928;53.074;6.646;2022-10-31T15:38:24;11.30;;;5.07;;
59145;SDS011;44928;53.074;6.646;2022-10-31T15:41:04;11.65;;;4.90;;
59145;SDS011;44928;53.074;6.646;2022-10-31T15:43:47;14.00;;;4.82;;
59145;SDS011;44928;53.074;6.646;2022-10-31T15:46:13;14.30;;;5.20;;
59145;SDS011;44928;53.074;6.646;2022-10-31T15:48:43;15.00;;;5.15;;
59145;SDS011;44928;53.074;6.646;2022-10-31T15:51:10;12.35;;;4.32;;
59145;SDS011;44928;53.074;6.646;2022-10-31T15:53:41;10.10;;;6.22;;
59145;SDS011;44928;53.074;6.646;2022-10-31T15:56:19;10.85;;;4.10;;
59145;SDS011;44928;53.074;6.646;2022-10-31T15:58:51;10.95;;;3.75;;
59145;SDS011;44928;53.074;6.646;2022-10-31T16:01:25;10.43;;;3.72;;
59145;SDS011;44928;53.074;6.646;2022-10-31T16:07:00;10.18;;;4.20;;
59145;SDS011;44928;53.074;6.646;2022-10-31T16:09:35;12.13;;;4.53;;
59145;SDS011;44928;53.074;6.646;2022-10-31T16:12:01;9.73;;;3.70;;
59145;SDS011;44928;53.074;6.646;2022-10-31T16:14:29;12.77;;;4.53;;
59145;SDS011;44928;53.074;6.646;2022-10-31T16:16:59;11.43;;;4.43;;
59145;SDS011;44928;53.074;6.646;2022-10-31T16:22:19;10.13;;;4.55;;
59145;SDS011;44928;53.074;6.646;2022-10-31T16:27:47;12.10;;;5.70;;
59145;SDS011;44928;53.074;6.646;2022-10-31T16:30:39;11.85;;;4.53;;
59145;SDS011;44928;53.074;6.646;2022-10-31T16:33:23;16.85;;;11.80;;
59145;SDS011;44928;53.074;6.646;2022-10-31T16:35:49;10.57;;;5.45;;
59145;SDS011;44928;53.074;6.646;2022-10-31T16:38:15;12.07;;;5.45;;
59145;SDS011;44928;53.074;6.646;2022-10-31T16:40:41;14.90;;;8.63;;
59145;SDS011;44928;53.074;6.646;2022-10-31T16:43:09;18.00;;;9.48;;
59145;SDS011;44928;53.074;6.646;2022-10-31T16:45:37;38.88;;;26.33;;
59145;SDS011;44928;53.074;6.646;2022-10-31T16:48:11;21.70;;;14.65;;
59145;SDS011;44928;53.074;6.646;2022-10-31T16:50:39;40.13;;;30.58;;
59145;SDS011;44928;53.074;6.646;2022-10-31T16:53:08;30.65;;;19.77;;
59145;SDS011;44928;53.074;6.646;2022-10-31T16:55:34;40.78;;;31.75;;
59145;SDS011;44928;53.074;6.646;2022-10-31T16:58:17;30.33;;;23.70;;
59145;SDS011;44928;53.074;6.646;2022-10-31T17:00:47;13.85;;;7.82;;
59145;SDS011;44928;53.074;6.646;2022-10-31T17:03:13;13.65;;;8.75;;
59145;SDS011;44928;53.074;6.646;2022-10-31T17:05:39;13.55;;;9.25;;
59145;SDS011;44928;53.074;6.646;2022-10-31T17:08:04;13.73;;;8.02;;
59145;SDS011;44928;53.074;6.646;2022-10-31T17:10:30;14.45;;;9.55;;
59145;SDS011;44928;53.074;6.646;2022-10-31T17:12:57;16.55;;;10.90;;
59145;SDS011;44928;53.074;6.646;2022-10-31T17:15:25;16.05;;;10.25;;
59145;SDS011;44928;53.074;6.646;2022-10-31T17:17:52;16.67;;;9.65;;
59145;SDS011;44928;53.074;6.646;2022-10-31T17:22:49;16.55;;;9.73;;
59145;SDS011;44928;53.074;6.646;2022-10-31T17:25:16;16.67;;;10.75;;
59145;SDS011;44928;53.074;6.646;2022-10-31T17:27:50;16.40;;;10.23;;